Portada
METAR-TAF:

METAR-TAF

Aeropuertos :

Base Aérea de Alcantarilla

Murcia, España

latitud: 37-57N, longitud: 001-14W, altitud: 75 m

Observación

El informe se hizo hace 22 minutos, a las 08:00 UTC
Viento 4 kt del norte, variando entre oeste-noroeste y este-noreste
Temperatura 21°C
Humedad 43%
Presión 1018 hPa
Visibilidad 10 km o más
sin nubes por debajo de 1500 m y sin presencia de cumulonimbus.

METAR: LERI 130800Z 35004KT 300V060 CAVOK 21/08 Q1018 NOSIG

Hora: 10:22 (08:22 UTC)

Pronóstico

El informe se hizo hace 3 horas y 22 minutos, a las 05:00 UTC
Pronóstico válido del 13 a las 06 UTC al 14 a las 06 UTC
Viento 9 kt del noroeste
Visibilidad 10 km o más
sin nubes por debajo de 1500 m y sin presencia de cumulonimbus.
Evolucionando progresivamente
del 13 a las 11 UTC al 13 a las 13 UTC
Viento 12 kt del sur

TAF: LERI 130500Z 1306/1406 32009KT CAVOK TX24/1310Z TN16/1403Z BECMG 1311/1313 19012KT

Observaciones y pronósticos meteorológicos de más de 4000 aeropuertos (mensajes METAR y TAF).

Los puntos amarillos y rojos representan las estaciones disponibles.

Ponga el ratón en el punto deseado para ver el nombre de la estación.

Haga clic para ver las observaciones y los pronósticos meteorológicos.

Para cambiar el mapa : haga clic en los botones verdes con una cruz de color negro para hacer un zoom, en el botón verde con un guión para alejar o en las flechas verdes para mapas adyacentes.


METAR-TAF: